Time;durP1;ratioP1;P1;durP2;ratioP2;P2;SDS_P1;SDS_P2;PMS_P1;PMS_P2;Temp;Humidity;BMP_temperature;BMP_pressure;BME280_temperature;BME280_humidity;BME280_pressure;Samples;Min_cycle;Max_cycle;Signal;HPM_P1;HPM_P2
2022/11/22 00:00:15;;;;;;;38.95;23.15;;;1.70;99.90;;;;;;2056295;28;20021;-70
2022/11/22 00:01:16;;;;;;;34.78;21.42;;;1.70;99.90;;;;;;2057396;28;20073;-70
2022/11/22 00:02:17;;;;;;;33.90;21.20;;;1.70;99.90;;;;;;2057380;28;20031;-71
2022/11/22 00:03:17;;;;;;;33.55;20.65;;;1.60;99.90;;;;;;2057261;28;20038;-71
2022/11/22 00:04:18;;;;;;;34.63;21.05;;;1.60;99.90;;;;;;2057448;28;20110;-71
2022/11/22 00:05:19;;;;;;;37.40;21.63;;;1.60;99.90;;;;;;2057742;28;20093;-71
2022/11/22 00:06:20;;;;;;;37.65;22.58;;;1.50;99.90;;;;;;2057570;28;20035;-70
2022/11/22 00:07:21;;;;;;;39.72;23.17;;;1.50;99.90;;;;;;2065717;28;20366;-69
2022/11/22 00:08:22;;;;;;;37.47;22.15;;;1.40;99.90;;;;;;2064716;28;20038;-72
2022/11/22 00:09:22;;;;;;;38.75;22.67;;;1.40;99.90;;;;;;2059445;28;20081;-67
2022/11/22 00:10:23;;;;;;;37.72;21.55;;;1.40;99.90;;;;;;2060143;28;20026;-70
2022/11/22 00:11:24;;;;;;;34.95;21.05;;;1.40;99.90;;;;;;2057624;28;20035;-70
2022/11/22 00:12:24;;;;;;;34.33;20.77;;;1.30;99.90;;;;;;2059294;28;20045;-70
2022/11/22 00:13:25;;;;;;;31.88;18.95;;;1.30;99.90;;;;;;2060326;28;20034;-71
2022/11/22 00:14:26;;;;;;;32.83;19.60;;;1.30;99.90;;;;;;2060733;28;20030;-69
2022/11/22 00:15:27;;;;;;;35.90;21.20;;;1.20;99.90;;;;;;2060666;28;20023;-71
2022/11/22 00:16:28;;;;;;;34.20;21.27;;;1.20;99.90;;;;;;2061274;28;20037;-71
2022/11/22 00:17:30;;;;;;;31.30;19.70;;;1.20;99.90;;;;;;2068719;28;20121;-72
2022/11/22 00:18:31;;;;;;;35.33;21.23;;;1.20;99.90;;;;;;2068059;28;20029;-71
2022/11/22 00:19:34;;;;;;;35.30;20.98;;;1.20;99.90;;;;;;2060909;28;20118;-71
2022/11/22 00:20:34;;;;;;;35.10;20.65;;;1.10;99.90;;;;;;2060281;28;20058;-70
2022/11/22 00:21:35;;;;;;;38.33;22.40;;;1.10;99.90;;;;;;2059261;28;20027;-71
2022/11/22 00:22:36;;;;;;;37.85;22.10;;;1.10;99.90;;;;;;2069392;28;20027;-69
2022/11/22 00:23:37;;;;;;;36.85;22.20;;;1.10;99.90;;;;;;2058839;28;20061;-70
2022/11/22 00:24:37;;;;;;;36.47;21.95;;;1.10;99.90;;;;;;2063777;28;20847;-71
2022/11/22 00:25:38;;;;;;;41.25;23.95;;;1.10;99.90;;;;;;2072093;28;20030;-71
2022/11/22 00:26:39;;;;;;;42.05;24.83;;;1.10;99.90;;;;;;2063850;28;20037;-70
2022/11/22 00:27:40;;;;;;;41.08;24.35;;;1.20;99.90;;;;;;2058923;28;20049;-71
2022/11/22 00:28:40;;;;;;;42.50;24.02;;;1.20;99.90;;;;;;2061867;28;20141;-71
2022/11/22 00:29:41;;;;;;;38.03;22.38;;;1.20;99.90;;;;;;2066344;28;20061;-72
2022/11/22 00:30:42;;;;;;;40.15;23.58;;;1.20;99.90;;;;;;2069417;28;20053;-71
2022/11/22 00:31:42;;;;;;;37.30;22.42;;;1.20;99.90;;;;;;2058808;28;20089;-69
2022/11/22 00:32:43;;;;;;;36.95;22.00;;;1.20;99.90;;;;;;2061133;28;20027;-70
2022/11/22 00:33:44;;;;;;;36.40;21.30;;;1.10;99.90;;;;;;2069419;28;20098;-70
2022/11/22 00:34:45;;;;;;;35.83;21.33;;;1.10;99.90;;;;;;2067143;28;20038;-70
2022/11/22 00:35:45;;;;;;;34.58;20.55;;;1.10;99.90;;;;;;2061686;28;20034;-70
2022/11/22 00:36:46;;;;;;;34.25;21.35;;;1.10;99.90;;;;;;2067479;28;20111;-69
2022/11/22 00:37:47;;;;;;;33.15;20.05;;;1.10;99.90;;;;;;2061165;28;20751;-71
2022/11/22 00:38:48;;;;;;;35.45;20.55;;;1.10;99.90;;;;;;2060095;28;20058;-69
2022/11/22 00:39:48;;;;;;;34.67;21.25;;;1.00;99.90;;;;;;2067808;28;20042;-70
2022/11/22 00:40:49;;;;;;;37.97;22.77;;;1.00;99.90;;;;;;2068011;28;20048;-69
2022/11/22 00:41:50;;;;;;;37.92;22.45;;;1.00;99.90;;;;;;2059919;28;20066;-71
2022/11/22 00:42:50;;;;;;;37.50;20.83;;;1.00;99.90;;;;;;2060009;28;20038;-70
2022/11/22 00:43:51;;;;;;;34.92;20.73;;;1.00;99.90;;;;;;2060174;28;20041;-70
2022/11/22 00:44:52;;;;;;;35.40;20.55;;;1.00;99.90;;;;;;2060519;28;20034;-71
2022/11/22 00:45:53;;;;;;;32.88;19.60;;;1.00;99.90;;;;;;2068344;28;20049;-71
2022/11/22 00:46:54;;;;;;;32.92;19.65;;;1.00;99.90;;;;;;2059438;28;20513;-69
2022/11/22 00:47:54;;;;;;;37.63;22.27;;;0.90;99.90;;;;;;2060555;28;20027;-70
2022/11/22 00:48:55;;;;;;;36.53;21.40;;;0.90;99.90;;;;;;2058991;28;20064;-71
2022/11/22 00:49:56;;;;;;;36.25;21.50;;;0.90;99.90;;;;;;2060428;28;20058;-71
2022/11/22 00:50:57;;;;;;;34.80;21.17;;;0.90;99.90;;;;;;2058975;28;20137;-71
2022/11/22 00:51:57;;;;;;;33.85;20.27;;;0.90;99.90;;;;;;2060841;28;20027;-70
2022/11/22 00:52:58;;;;;;;34.97;20.85;;;0.90;99.90;;;;;;2066689;28;20492;-70
2022/11/22 00:53:59;;;;;;;33.05;19.92;;;0.80;99.90;;;;;;2066344;28;20405;-70
2022/11/22 00:54:59;;;;;;;32.60;19.35;;;0.80;99.90;;;;;;2061408;28;20097;-70
2022/11/22 00:56:00;;;;;;;32.13;18.73;;;0.80;99.90;;;;;;2058984;28;20039;-70
2022/11/22 00:57:01;;;;;;;31.50;19.10;;;0.80;99.90;;;;;;2058878;28;20033;-70
2022/11/22 00:58:02;;;;;;;31.63;19.17;;;0.70;99.90;;;;;;2061560;28;20033;-70
2022/11/22 00:59:02;;;;;;;31.08;18.58;;;0.70;99.90;;;;;;2059104;28;20129;-71
2022/11/22 01:00:05;;;;;;;32.20;19.30;;;0.70;99.90;;;;;;2052794;28;20023;-69
2022/11/22 01:01:05;;;;;;;29.98;18.48;;;0.70;99.90;;;;;;2051282;28;20023;-70
2022/11/22 01:02:06;;;;;;;29.27;17.73;;;0.70;99.90;;;;;;2060268;28;20026;-70
2022/11/22 01:03:11;;;;;;;28.75;17.45;;;0.70;99.90;;;;;;2060067;28;20084;-71
2022/11/22 01:04:12;;;;;;;30.35;18.30;;;0.70;99.90;;;;;;2060255;28;20026;-70
2022/11/22 01:05:12;;;;;;;30.08;18.17;;;0.60;99.90;;;;;;2060719;28;20656;-69
2022/11/22 01:06:13;;;;;;;29.67;18.20;;;0.60;99.90;;;;;;2060276;28;20034;-70
2022/11/22 01:07:14;;;;;;;31.23;18.33;;;0.60;99.90;;;;;;2060778;28;20038;-70
2022/11/22 01:08:14;;;;;;;29.60;18.27;;;0.60;99.90;;;;;;2059925;28;20619;-70
2022/11/22 01:09:18;;;;;;;32.53;19.33;;;0.60;99.90;;;;;;2060480;28;20029;-71
2022/11/22 01:10:19;;;;;;;31.17;18.58;;;0.60;99.90;;;;;;2058937;28;20014;-71
2022/11/22 01:11:20;;;;;;;32.95;19.33;;;0.60;99.90;;;;;;2061395;28;20117;-70
2022/11/22 01:12:21;;;;;;;32.72;19.92;;;0.60;99.90;;;;;;2058881;28;20409;-71
2022/11/22 01:13:21;;;;;;;29.50;18.75;;;0.60;99.90;;;;;;2061313;28;20058;-70
2022/11/22 01:14:22;;;;;;;35.15;21.73;;;0.60;99.90;;;;;;2066249;28;20438;-70
2022/11/22 01:15:23;;;;;;;35.28;21.42;;;0.60;99.90;;;;;;2060636;28;20528;-70
2022/11/22 01:16:24;;;;;;;34.60;21.40;;;0.60;99.90;;;;;;2050266;28;20038;-71
2022/11/22 01:17:26;;;;;;;34.47;21.27;;;0.60;99.90;;;;;;2063217;28;20057;-70
2022/11/22 01:18:27;;;;;;;34.55;20.90;;;0.60;99.90;;;;;;2064485;28;20097;-71
2022/11/22 01:19:27;;;;;;;34.10;20.52;;;0.60;99.90;;;;;;2064269;28;20065;-71
2022/11/22 01:20:29;;;;;;;36.25;21.67;;;0.60;99.90;;;;;;2063727;28;20038;-71
2022/11/22 01:21:31;;;;;;;35.95;21.35;;;0.60;99.90;;;;;;2064485;28;20053;-70
2022/11/22 01:22:32;;;;;;;35.35;22.02;;;0.70;99.90;;;;;;2064466;28;20030;-71
2022/11/22 01:23:33;;;;;;;35.88;21.63;;;0.70;99.90;;;;;;2064506;28;20558;-71
2022/11/22 01:24:34;;;;;;;35.80;21.70;;;0.70;99.90;;;;;;2064639;28;20022;-71
2022/11/22 01:25:35;;;;;;;37.80;22.08;;;0.70;99.90;;;;;;2071661;28;20052;-71
2022/11/22 01:26:37;;;;;;;37.67;22.40;;;0.70;99.90;;;;;;2072231;28;20061;-72
2022/11/22 01:27:38;;;;;;;36.10;22.08;;;0.70;99.90;;;;;;2065705;28;20026;-71
2022/11/22 01:28:38;;;;;;;35.47;21.75;;;0.70;99.90;;;;;;2065109;28;20077;-70
2022/11/22 01:29:39;;;;;;;36.08;22.15;;;0.80;99.90;;;;;;2066111;28;20045;-70
2022/11/22 01:30:41;;;;;;;34.90;21.73;;;0.80;99.90;;;;;;2058645;28;20675;-72
2022/11/22 01:31:42;;;;;;;35.90;22.13;;;0.80;99.90;;;;;;2057387;28;20150;-71
2022/11/22 01:32:43;;;;;;;34.20;21.17;;;0.80;99.90;;;;;;2057182;28;20163;-70
2022/11/22 01:33:44;;;;;;;35.92;21.55;;;0.80;99.90;;;;;;2062687;28;20093;-71
2022/11/22 01:34:45;;;;;;;32.40;19.95;;;0.80;99.90;;;;;;2058723;28;20034;-73
2022/11/22 01:35:46;;;;;;;33.08;20.63;;;0.80;99.90;;;;;;2048228;28;20046;-72
2022/11/22 01:36:47;;;;;;;33.97;21.02;;;0.80;99.90;;;;;;2055625;28;20068;-70
2022/11/22 01:37:48;;;;;;;32.42;20.02;;;0.80;99.90;;;;;;2056115;28;20037;-70
2022/11/22 01:38:48;;;;;;;32.00;20.23;;;0.80;99.90;;;;;;2055858;28;20426;-69
2022/11/22 01:39:49;;;;;;;30.58;18.95;;;0.80;99.90;;;;;;2063801;28;20026;-70
2022/11/22 01:40:50;;;;;;;28.48;18.33;;;0.80;99.90;;;;;;2063656;28;20096;-70
2022/11/22 01:41:50;;;;;;;31.42;19.85;;;0.80;99.90;;;;;;2056365;28;20043;-71
2022/11/22 01:42:54;;;;;;;33.45;20.25;;;0.80;99.90;;;;;;2056097;28;20058;-71
2022/11/22 01:43:55;;;;;;;37.15;21.90;;;0.80;99.90;;;;;;2056110;28;20039;-71
2022/11/22 01:45:28;;;;;;;33.92;20.98;;;0.80;99.90;;;;;;2056414;28;20051;-71
2022/11/22 01:46:38;;;;;;;34.22;21.27;;;0.80;99.90;;;;;;2063339;28;20882;-70
2022/11/22 01:47:39;;;;;;;36.58;21.73;;;0.80;99.90;;;;;;2062511;28;20018;-71
2022/11/22 01:48:49;;;;;;;40.70;22.85;;;0.80;99.90;;;;;;2056168;28;20034;-71
2022/11/22 01:50:00;;;;;;;36.25;22.75;;;0.90;99.90;;;;;;2055978;28;20042;-70
2022/11/22 01:51:04;;;;;;;;;;;0.90;99.90;;;;;;2056549;28;20019;-70
2022/11/22 01:52:09;;;;;;;36.30;21.45;;;0.90;99.90;;;;;;2056042;28;19941;-71
2022/11/22 01:53:14;;;;;;;35.83;22.00;;;0.90;99.90;;;;;;2055481;28;20031;-70
2022/11/22 01:54:21;;;;;;;34.72;22.13;;;0.90;99.90;;;;;;2055404;28;20022;-70
2022/11/22 01:55:22;;;;;;;34.10;21.35;;;0.90;99.90;;;;;;2055559;28;20082;-70
2022/11/22 01:56:24;;;;;;;34.72;22.58;;;0.90;99.90;;;;;;2055588;28;20022;-71
2022/11/22 01:57:29;;;;;;;35.72;22.67;;;0.90;99.90;;;;;;2056217;28;20110;-71
2022/11/22 01:58:33;;;;;;;35.95;22.08;;;0.90;99.90;;;;;;2056263;28;20128;-71
2022/11/22 01:59:38;;;;;;;34.38;21.63;;;0.90;99.90;;;;;;2055785;28;20174;-70
2022/11/22 02:00:38;;;;;;;34.08;21.83;;;0.90;99.90;;;;;;2063165;28;20030;-70
2022/11/22 02:01:39;;;;;;;35.83;22.40;;;0.90;99.90;;;;;;2063611;28;20073;-70
2022/11/22 02:02:40;;;;;;;34.35;22.20;;;0.90;99.90;;;;;;2056234;28;20037;-72
2022/11/22 02:03:44;;;;;;;36.97;22.77;;;0.90;99.90;;;;;;2056031;28;20033;-70
2022/11/22 02:04:45;;;;;;;35.03;22.08;;;0.90;99.90;;;;;;2055935;28;20026;-72
2022/11/22 02:05:48;;;;;;;36.13;22.63;;;0.90;99.90;;;;;;2055990;28;20592;-69
2022/11/22 02:06:55;;;;;;;36.30;22.63;;;0.90;99.90;;;;;;2055849;28;20035;-71
2022/11/22 02:08:04;;;;;;;35.22;21.80;;;0.90;99.90;;;;;;2056718;28;20088;-70
2022/11/22 02:09:12;;;;;;;33.50;21.17;;;0.80;99.90;;;;;;2058612;28;20031;-71
2022/11/22 02:10:15;;;;;;;32.75;20.95;;;0.80;99.90;;;;;;2058728;28;20278;-71
2022/11/22 02:11:17;;;;;;;35.03;21.75;;;0.80;99.90;;;;;;2059065;28;20018;-72
2022/11/22 02:12:22;;;;;;;32.95;21.00;;;0.80;99.90;;;;;;2056335;28;20026;-70
2022/11/22 02:13:24;;;;;;;30.15;19.55;;;0.80;99.90;;;;;;2056422;28;20026;-71
2022/11/22 02:14:26;;;;;;;30.42;19.73;;;0.80;99.90;;;;;;2057303;28;20050;-71
2022/11/22 02:15:27;;;;;;;30.40;19.05;;;0.80;99.90;;;;;;2056893;28;20060;-71
2022/11/22 02:16:28;;;;;;;27.98;18.10;;;0.70;99.90;;;;;;2057301;28;20708;-71
2022/11/22 02:17:28;;;;;;;29.88;19.30;;;0.70;99.90;;;;;;2056996;28;20082;-70
2022/11/22 02:18:29;;;;;;;30.58;19.40;;;0.70;99.90;;;;;;2056916;28;20047;-71
2022/11/22 02:19:46;;;;;;;29.50;19.55;;;0.70;99.90;;;;;;2056112;28;20124;-72
2022/11/22 02:20:47;;;;;;;30.02;19.55;;;0.60;99.90;;;;;;2056276;28;20031;-72
2022/11/22 02:21:59;;;;;;;30.33;18.95;;;0.60;99.90;;;;;;2056192;28;20023;-71
2022/11/22 02:23:16;;;;;;;28.35;18.27;;;0.60;99.90;;;;;;2056383;28;20101;-71
2022/11/22 02:24:21;;;;;;;28.35;18.38;;;0.60;99.90;;;;;;2064444;28;20030;-71
2022/11/22 02:25:40;;;;;;;28.55;18.08;;;0.50;99.90;;;;;;2062759;28;20026;-71
2022/11/22 02:26:41;;;;;;;28.95;17.77;;;0.50;99.90;;;;;;2062021;28;20034;-71
2022/11/22 02:27:42;;;;;;;29.08;18.05;;;0.50;99.90;;;;;;2062916;28;20379;-71
2022/11/22 02:28:43;;;;;;;27.40;17.48;;;0.50;99.90;;;;;;2063346;28;20078;-72
2022/11/22 02:29:44;;;;;;;29.85;19.20;;;0.50;99.90;;;;;;2055561;28;20077;-71
2022/11/22 02:30:45;;;;;;;30.98;19.88;;;0.40;99.90;;;;;;2055891;28;20780;-70
2022/11/22 02:31:46;;;;;;;30.98;19.95;;;0.50;99.90;;;;;;2055856;28;20034;-71
2022/11/22 02:32:47;;;;;;;35.50;21.67;;;0.50;99.90;;;;;;2056017;28;20033;-71
2022/11/22 02:33:48;;;;;;;34.83;21.92;;;0.60;99.90;;;;;;2059273;28;20377;-71
2022/11/22 02:34:50;;;;;;;32.25;19.92;;;0.60;99.90;;;;;;2063878;28;20495;-71
2022/11/22 02:35:51;;;;;;;30.75;19.77;;;0.60;99.90;;;;;;2071362;28;20026;-71
2022/11/22 02:36:53;;;;;;;30.80;20.15;;;0.50;99.90;;;;;;2071286;28;20088;-70
2022/11/22 02:37:56;;;;;;;31.35;20.70;;;0.50;99.90;;;;;;2063586;28;20164;-70
2022/11/22 02:38:56;;;;;;;32.55;20.55;;;0.50;99.90;;;;;;2070797;28;20040;-73
2022/11/22 02:40:02;;;;;;;30.23;19.15;;;0.50;99.90;;;;;;2071065;28;20109;-72
2022/11/22 02:41:08;;;;;;;30.33;19.33;;;0.50;99.90;;;;;;2070709;28;20106;-71
2022/11/22 02:42:09;;;;;;;30.23;19.25;;;0.40;99.90;;;;;;2062630;28;20785;-70
2022/11/22 02:43:17;;;;;;;30.35;19.40;;;0.40;99.90;;;;;;2063769;28;20038;-71
2022/11/22 02:44:19;;;;;;;29.73;18.50;;;0.40;99.90;;;;;;2063778;28;20134;-71
2022/11/22 02:45:20;;;;;;;29.58;18.27;;;0.40;99.90;;;;;;2063896;28;20081;-72
2022/11/22 02:46:22;;;;;;;31.50;19.20;;;0.40;99.90;;;;;;2071223;28;20083;-72
2022/11/22 02:47:23;;;;;;;31.98;19.58;;;0.40;99.90;;;;;;2071148;28;20022;-71
2022/11/22 02:48:23;;;;;;;30.52;19.67;;;0.40;99.90;;;;;;2063972;28;20473;-71
2022/11/22 02:49:24;;;;;;;31.55;19.73;;;0.30;99.90;;;;;;2063606;28;20022;-71
2022/11/22 02:50:25;;;;;;;31.63;19.55;;;0.30;99.90;;;;;;2063856;28;20861;-71
2022/11/22 02:51:25;;;;;;;33.40;20.42;;;0.30;99.90;;;;;;2064048;28;20477;-71
2022/11/22 02:52:26;;;;;;;33.10;20.00;;;0.30;99.90;;;;;;2071503;28;20022;-71
2022/11/22 02:53:30;;;;;;;32.65;19.52;;;0.40;99.90;;;;;;2071226;28;20649;-71
2022/11/22 02:54:30;;;;;;;33.70;19.65;;;0.30;99.90;;;;;;2063148;28;20621;-71
2022/11/22 02:55:31;;;;;;;32.85;19.10;;;0.30;99.90;;;;;;2064080;28;20019;-70
2022/11/22 02:56:32;;;;;;;33.88;20.20;;;0.30;99.90;;;;;;2063808;28;20031;-71
2022/11/22 02:57:33;;;;;;;35.00;20.13;;;0.30;99.90;;;;;;2063720;28;20705;-72
2022/11/22 02:58:34;;;;;;;34.38;20.52;;;0.30;99.90;;;;;;2071306;28;20030;-71
2022/11/22 02:59:34;;;;;;;39.47;22.27;;;0.30;99.90;;;;;;2071056;28;20068;-69
2022/11/22 03:00:38;;;;;;;37.42;22.65;;;0.30;99.90;;;;;;2063197;28;20069;-71
2022/11/22 03:01:39;;;;;;;39.92;22.80;;;0.30;99.90;;;;;;2063929;28;20069;-71
2022/11/22 03:02:40;;;;;;;40.38;23.38;;;0.30;99.90;;;;;;2063666;28;20033;-72
2022/11/22 03:03:40;;;;;;;45.05;25.58;;;0.40;99.90;;;;;;2071436;28;20040;-71
2022/11/22 03:04:41;;;;;;;44.80;24.80;;;0.40;99.90;;;;;;2071258;28;20034;-70
2022/11/22 03:05:42;;;;;;;43.00;24.30;;;0.40;99.90;;;;;;2063618;28;20117;-70
2022/11/22 03:06:42;;;;;;;44.60;24.75;;;0.40;99.90;;;;;;2071129;28;20041;-70
2022/11/22 03:07:43;;;;;;;43.10;24.40;;;0.40;99.90;;;;;;2071359;28;20032;-70
2022/11/22 03:08:44;;;;;;;42.83;25.17;;;0.40;99.90;;;;;;2063850;28;20489;-70
2022/11/22 03:09:45;;;;;;;44.25;25.08;;;0.40;99.90;;;;;;2063474;28;20496;-69
2022/11/22 03:10:45;;;;;;;41.70;24.60;;;0.40;99.90;;;;;;2063955;28;20150;-71
2022/11/22 03:11:46;;;;;;;41.60;23.92;;;0.40;99.90;;;;;;2071520;28;20115;-71
2022/11/22 03:12:47;;;;;;;38.92;23.48;;;0.40;99.90;;;;;;2071342;28;20018;-71
2022/11/22 03:13:47;;;;;;;40.10;23.30;;;0.40;99.90;;;;;;2063049;28;20027;-70
2022/11/22 03:14:48;;;;;;;41.17;24.15;;;0.40;99.90;;;;;;2063584;28;20030;-70
2022/11/22 03:15:49;;;;;;;39.47;23.80;;;0.40;99.90;;;;;;2063571;28;20027;-70
2022/11/22 03:16:50;;;;;;;44.83;25.52;;;0.50;99.90;;;;;;2063915;28;20050;-71
2022/11/22 03:17:58;;;;;;;45.63;25.60;;;0.50;99.90;;;;;;2063809;28;20031;-70
2022/11/22 03:18:59;;;;;;;48.08;26.85;;;0.40;99.90;;;;;;2063505;28;20088;-71
2022/11/22 03:20:00;;;;;;;45.08;25.88;;;0.40;99.90;;;;;;2063571;28;20061;-70
2022/11/22 03:21:05;;;;;;;43.25;24.60;;;0.50;99.90;;;;;;2063543;28;20042;-71
2022/11/22 03:22:06;;;;;;;47.50;25.15;;;0.50;99.90;;;;;;2063089;28;20117;-70
2022/11/22 03:23:07;;;;;;;44.03;25.83;;;0.50;99.90;;;;;;2057787;28;20042;-70
2022/11/22 03:24:08;;;;;;;45.38;26.38;;;0.50;99.90;;;;;;2070955;28;20033;-70
2022/11/22 03:25:09;;;;;;;45.70;25.77;;;0.50;99.90;;;;;;2063602;28;20485;-70
2022/11/22 03:26:11;;;;;;;41.55;24.67;;;0.50;99.90;;;;;;2070827;28;20080;-72
2022/11/22 03:27:12;;;;;;;44.60;25.50;;;0.50;99.90;;;;;;2063056;28;20121;-70
2022/11/22 03:28:12;;;;;;;43.72;25.27;;;0.60;99.90;;;;;;2062994;28;20050;-70
2022/11/22 03:29:13;;;;;;;45.25;26.10;;;0.60;99.90;;;;;;2070965;28;20455;-70
2022/11/22 03:30:14;;;;;;;42.95;25.85;;;0.60;99.90;;;;;;2071221;28;20042;-71
2022/11/22 03:31:15;;;;;;;44.20;26.05;;;0.60;99.90;;;;;;2062793;28;20023;-70
2022/11/22 03:32:16;;;;;;;48.25;26.83;;;0.60;99.90;;;;;;2063056;28;20034;-70
2022/11/22 03:33:16;;;;;;;45.80;27.42;;;0.60;99.90;;;;;;2062932;28;20366;-71
2022/11/22 03:34:17;;;;;;;42.05;24.83;;;0.70;99.90;;;;;;2063417;28;20034;-70
2022/11/22 03:35:18;;;;;;;41.88;25.27;;;0.70;99.90;;;;;;2063678;28;20214;-72
2022/11/22 03:36:18;;;;;;;42.65;25.25;;;0.70;99.90;;;;;;2063767;28;20037;-70
2022/11/22 03:37:19;;;;;;;39.92;24.58;;;0.70;99.90;;;;;;2063491;28;20022;-70
2022/11/22 03:38:20;;;;;;;38.10;22.80;;;0.70;99.90;;;;;;2063767;28;20076;-69
2022/11/22 03:39:21;;;;;;;40.22;23.83;;;0.70;99.90;;;;;;2070751;28;20132;-70
2022/11/22 03:40:21;;;;;;;38.90;23.55;;;0.70;99.90;;;;;;2071155;28;20101;-70
2022/11/22 03:41:22;;;;;;;40.33;23.90;;;0.60;99.90;;;;;;2071039;28;20030;-70
2022/11/22 03:42:23;;;;;;;38.25;23.58;;;0.60;99.90;;;;;;2071188;28;20072;-71
2022/11/22 03:43:23;;;;;;;38.42;22.67;;;0.60;99.90;;;;;;2071106;28;20294;-72
2022/11/22 03:44:24;;;;;;;36.72;21.98;;;0.60;99.90;;;;;;2072515;28;20065;-71
2022/11/22 03:45:25;;;;;;;36.70;22.08;;;0.60;99.90;;;;;;2057595;28;20085;-71
2022/11/22 03:46:26;;;;;;;38.22;22.60;;;0.60;99.90;;;;;;2064597;28;20038;-72
2022/11/22 03:47:26;;;;;;;34.55;21.30;;;0.60;99.90;;;;;;2065113;28;20023;-70
2022/11/22 03:48:27;;;;;;;36.38;21.52;;;0.60;99.90;;;;;;2072517;28;20034;-70
2022/11/22 03:49:28;;;;;;;33.65;21.33;;;0.60;99.90;;;;;;2064174;28;20109;-70
2022/11/22 03:50:30;;;;;;;32.88;20.88;;;0.60;99.90;;;;;;2064260;28;20117;-69
2022/11/22 03:51:30;;;;;;;33.75;20.92;;;0.60;99.90;;;;;;2072219;28;20030;-69
2022/11/22 03:52:31;;;;;;;34.17;20.92;;;0.60;99.90;;;;;;2065127;28;20447;-72
2022/11/22 03:53:32;;;;;;;33.20;21.20;;;0.60;99.90;;;;;;2065205;28;20057;-70
2022/11/22 03:54:33;;;;;;;33.13;20.92;;;0.60;99.90;;;;;;2065020;28;20539;-70
2022/11/22 03:55:34;;;;;;;33.88;21.00;;;0.60;99.90;;;;;;2065018;28;20041;-71
2022/11/22 03:56:35;;;;;;;32.30;20.63;;;0.60;99.90;;;;;;2065128;28;20044;-70
2022/11/22 03:57:36;;;;;;;34.33;20.77;;;0.60;99.90;;;;;;2072200;28;20022;-71
2022/11/22 03:58:36;;;;;;;36.20;22.17;;;0.60;99.90;;;;;;2072436;28;20026;-70
2022/11/22 03:59:37;;;;;;;35.92;21.77;;;0.60;99.90;;;;;;2064869;28;20469;-71
2022/11/22 04:00:38;;;;;;;34.55;21.58;;;0.70;99.90;;;;;;2065183;28;20033;-71
2022/11/22 04:01:38;;;;;;;36.03;22.30;;;0.70;99.90;;;;;;2065105;28;20123;-70
2022/11/22 04:02:39;;;;;;;35.17;21.85;;;0.70;99.90;;;;;;2065169;28;20084;-70
2022/11/22 04:03:40;;;;;;;35.35;21.77;;;0.70;99.90;;;;;;2072609;28;20026;-70
2022/11/22 04:04:40;;;;;;;34.10;21.95;;;0.70;99.90;;;;;;2064061;28;20481;-70
2022/11/22 04:05:43;;;;;;;35.60;22.15;;;0.70;99.90;;;;;;2064276;28;20093;-70
2022/11/22 04:06:43;;;;;;;31.92;20.80;;;0.80;99.90;;;;;;2072402;28;20065;-70
2022/11/22 04:07:44;;;;;;;34.05;22.02;;;0.80;99.90;;;;;;2072420;28;20540;-71
2022/11/22 04:08:45;;;;;;;34.78;22.15;;;0.80;99.90;;;;;;2065154;28;20065;-70
2022/11/22 04:09:45;;;;;;;31.33;20.73;;;0.80;99.90;;;;;;2064437;28;20030;-70
2022/11/22 04:10:50;;;;;;;32.97;21.35;;;0.80;99.90;;;;;;2065063;28;20022;-70
2022/11/22 04:11:51;;;;;;;33.58;21.00;;;0.80;99.90;;;;;;2065203;28;20026;-70
2022/11/22 04:12:58;;;;;;;33.95;21.90;;;0.80;99.90;;;;;;2072458;28;20112;-70
2022/11/22 04:15:18;;;;;;;31.88;20.50;;;0.90;99.90;;;;;;2064793;28;20041;-70
2022/11/22 04:16:19;;;;;;;36.00;22.15;;;0.90;99.90;;;;;;2072331;28;20439;-70
2022/11/22 04:17:39;;;;;;;33.80;21.45;;;0.90;99.90;;;;;;2072494;28;20796;-71
2022/11/22 04:18:40;;;;;;;36.63;22.17;;;0.90;99.90;;;;;;2069560;28;20476;-70
2022/11/22 04:21:32;;;;;;;36.78;22.45;;;1.00;99.90;;;;;;2056786;28;20038;-70
2022/11/22 04:22:20;;;;;;;36.85;22.23;;;1.00;99.90;;;;;;2065138;28;20096;-69
2022/11/22 04:23:23;;;;;;;35.28;22.23;;;1.00;99.90;;;;;;2064463;28;20137;-70
2022/11/22 04:25:50;;;;;;;38.35;22.00;;;1.00;99.90;;;;;;2055459;28;20039;-71
2022/11/22 04:26:51;;;;;;;34.78;22.17;;;1.00;99.90;;;;;;2064081;28;20042;-69
2022/11/22 04:27:51;;;;;;;35.17;21.92;;;1.10;99.90;;;;;;2064897;28;20040;-71
2022/11/22 04:28:52;;;;;;;36.22;22.60;;;1.10;99.90;;;;;;2064968;28;20026;-70
2022/11/22 04:29:53;;;;;;;36.60;22.80;;;1.10;99.90;;;;;;2065530;28;20030;-72
2022/11/22 04:33:32;;;;;;;36.70;23.20;;;1.20;99.90;;;;;;2066730;28;20045;-70
2022/11/22 04:34:34;;;;;;;35.33;22.75;;;1.20;99.90;;;;;;2067046;28;20026;-71
2022/11/22 04:35:35;;;;;;;37.45;23.45;;;1.20;99.90;;;;;;2066789;28;20042;-70
2022/11/22 04:36:36;;;;;;;37.00;23.75;;;1.20;99.90;;;;;;2067474;28;20046;-71
2022/11/22 04:37:36;;;;;;;38.50;24.48;;;1.20;99.90;;;;;;2066309;28;20030;-70
2022/11/22 04:38:37;;;;;;;51.85;30.33;;;1.30;99.90;;;;;;2066713;28;20370;-71
2022/11/22 04:39:38;;;;;;;47.03;28.27;;;1.30;99.90;;;;;;2066577;28;20531;-70
2022/11/22 04:40:39;;;;;;;41.20;25.90;;;1.30;99.90;;;;;;2066743;28;20026;-70
2022/11/22 04:41:39;;;;;;;39.92;25.25;;;1.30;99.90;;;;;;2073436;28;20029;-71
2022/11/22 04:45:19;;;;;;;63.35;36.13;;;1.30;99.90;;;;;;2065920;28;20042;-71
2022/11/22 04:46:20;;;;;;;53.33;31.65;;;1.40;99.90;;;;;;2065701;28;20030;-70
2022/11/22 04:48:41;;;;;;;55.38;31.38;;;1.50;99.90;;;;;;2065925;28;20029;-70
2022/11/22 04:49:41;;;;;;;45.80;27.73;;;1.50;99.90;;;;;;2065403;28;20061;-70
2022/11/22 04:53:23;;;;;;;39.15;23.70;;;1.50;99.90;;;;;;2065354;28;20037;-70
2022/11/22 04:54:23;;;;;;;35.88;21.75;;;1.50;99.90;;;;;;2064317;28;20077;-70
2022/11/22 04:55:24;;;;;;;34.72;21.90;;;1.50;99.90;;;;;;2062965;28;20143;-70
2022/11/22 04:56:25;;;;;;;33.20;21.30;;;1.60;99.90;;;;;;2064708;28;20060;-70
2022/11/22 04:57:25;;;;;;;36.83;22.80;;;1.60;99.90;;;;;;2063709;28;20607;-68
2022/11/22 04:58:26;;;;;;;36.03;22.85;;;1.60;99.90;;;;;;2063655;28;20033;-69
2022/11/22 04:59:27;;;;;;;40.45;25.05;;;1.70;99.90;;;;;;2063775;28;20038;-69
2022/11/22 05:00:29;;;;;;;40.25;25.20;;;1.70;99.90;;;;;;2064124;28;20057;-71
2022/11/22 05:01:29;;;;;;;36.65;22.52;;;1.80;99.90;;;;;;2064367;28;20450;-69
2022/11/22 05:02:30;;;;;;;32.88;20.77;;;1.80;99.90;;;;;;2063647;28;20034;-72
2022/11/22 05:03:31;;;;;;;47.83;30.48;;;1.80;99.90;;;;;;2055507;28;20401;-69
2022/11/22 05:04:32;;;;;;;39.20;25.20;;;1.80;99.90;;;;;;2063475;28;20034;-70
2022/11/22 05:05:37;;;;;;;37.55;23.65;;;1.80;99.90;;;;;;2064055;28;20038;-70
2022/11/22 05:06:37;;;;;;;37.53;23.20;;;1.80;99.90;;;;;;2063970;28;20050;-70
2022/11/22 05:07:38;;;;;;;36.15;23.08;;;1.80;99.90;;;;;;2071437;28;20033;-69
2022/11/22 05:08:39;;;;;;;35.05;21.55;;;1.80;99.90;;;;;;2071436;28;20049;-69
2022/11/22 05:09:40;;;;;;;37.15;22.60;;;1.90;99.90;;;;;;2063752;28;20026;-70
2022/11/22 05:10:56;;;;;;;32.60;20.67;;;1.90;99.90;;;;;;2063993;28;20030;-71
2022/11/22 05:11:56;;;;;;;32.55;20.25;;;1.90;99.90;;;;;;2063554;28;20030;-70
2022/11/22 05:12:57;;;;;;;37.65;23.85;;;1.80;99.90;;;;;;2064253;28;20030;-70
2022/11/22 05:13:58;;;;;;;35.78;22.90;;;1.90;99.90;;;;;;2064759;28;20034;-70
2022/11/22 05:14:58;;;;;;;34.20;22.40;;;1.90;99.90;;;;;;2061916;28;20038;-69
2022/11/22 05:16:01;;;;;;;32.22;20.83;;;1.90;99.90;;;;;;2058072;28;20038;-70
2022/11/22 05:17:01;;;;;;;34.97;21.38;;;2.00;99.90;;;;;;2064168;28;20126;-70
2022/11/22 05:18:02;;;;;;;31.00;20.17;;;2.00;99.90;;;;;;2064088;28;20030;-71
2022/11/22 05:19:03;;;;;;;37.08;24.13;;;2.00;99.90;;;;;;2063043;28;20113;-70
2022/11/22 05:20:06;;;;;;;38.45;24.90;;;2.00;99.90;;;;;;2055161;28;20531;-70
2022/11/22 05:21:09;;;;;;;35.45;22.90;;;2.10;99.90;;;;;;2063447;28;20065;-70
2022/11/22 05:22:10;;;;;;;32.67;21.85;;;2.10;99.90;;;;;;2064142;28;20038;-70
2022/11/22 05:24:31;;;;;;;33.50;21.00;;;2.20;99.90;;;;;;2063911;28;20576;-70
2022/11/22 05:25:31;;;;;;;31.85;21.88;;;2.20;99.90;;;;;;2064043;28;20026;-69
2022/11/22 05:26:34;;;;;;;32.72;21.17;;;2.10;99.90;;;;;;2064385;28;20105;-70
2022/11/22 05:27:35;;;;;;;32.08;20.85;;;2.20;99.90;;;;;;2064414;28;20026;-70
2022/11/22 05:28:37;;;;;;;29.23;20.35;;;2.10;99.90;;;;;;2064902;28;20033;-71
2022/11/22 05:29:38;;;;;;;33.95;21.90;;;2.10;99.90;;;;;;2064392;28;20177;-72
2022/11/22 05:30:39;;;;;;;35.03;23.48;;;2.10;99.90;;;;;;2064388;28;20513;-70
2022/11/22 05:31:41;;;;;;;39.03;25.52;;;2.10;99.90;;;;;;2071512;28;20036;-69
2022/11/22 05:32:42;;;;;;;53.22;36.92;;;2.20;99.90;;;;;;2071311;28;20032;-69